createdAt,value
2018-12-23T00:01:18.833Z,82.80
2018-12-23T00:03:46.651Z,83.00
2018-12-23T00:06:14.157Z,83.20
2018-12-23T00:08:41.697Z,83.20
2018-12-23T00:11:09.641Z,82.40
2018-12-23T00:13:38.276Z,82.80
2018-12-23T00:16:05.815Z,82.70
2018-12-23T00:18:33.624Z,82.40
2018-12-23T00:21:01.241Z,82.20
2018-12-23T00:23:29.388Z,81.80
2018-12-23T00:25:56.952Z,81.70
2018-12-23T00:28:24.537Z,81.80
2018-12-23T00:30:52.072Z,81.90
2018-12-23T00:33:19.621Z,81.80
2018-12-23T00:35:47.810Z,82.20
2018-12-23T00:38:15.330Z,82.90
2018-12-23T00:40:42.894Z,82.00
2018-12-23T00:43:10.413Z,82.10
2018-12-23T00:45:37.958Z,82.60
2018-12-23T00:48:05.458Z,83.00
2018-12-23T00:50:32.998Z,82.80
2018-12-23T00:53:00.545Z,83.40
2018-12-23T00:55:28.153Z,83.00
2018-12-23T00:57:55.694Z,83.50
2018-12-23T01:00:23.289Z,83.50
2018-12-23T01:02:51.740Z,83.40
2018-12-23T01:05:19.272Z,83.30
2018-12-23T01:07:46.833Z,83.30
2018-12-23T01:10:14.397Z,83.60
2018-12-23T01:12:41.930Z,83.70
2018-12-23T01:15:09.537Z,83.60
2018-12-23T01:17:37.097Z,83.60
2018-12-23T01:20:06.485Z,83.90
2018-12-23T01:22:34.044Z,83.80
2018-12-23T01:25:01.557Z,83.60
2018-12-23T01:27:29.137Z,83.60
2018-12-23T01:29:56.783Z,83.40
2018-12-23T01:32:24.302Z,83.70
2018-12-23T01:34:51.877Z,83.50
2018-12-23T01:37:19.407Z,83.70
2018-12-23T01:39:46.963Z,82.90
2018-12-23T01:42:15.148Z,83.00
2018-12-23T01:44:42.685Z,83.00
2018-12-23T01:47:10.296Z,83.10
2018-12-23T01:49:37.829Z,83.40
2018-12-23T01:52:05.588Z,83.70
2018-12-23T01:54:33.381Z,83.80
2018-12-23T01:57:00.933Z,84.60
2018-12-23T01:59:28.433Z,84.10
2018-12-23T02:01:55.986Z,83.80
2018-12-23T02:04:23.674Z,84.40
2018-12-23T02:06:51.230Z,84.30
2018-12-23T02:09:18.770Z,83.70
2018-12-23T02:11:46.336Z,83.90
2018-12-23T02:14:13.862Z,83.80
2018-12-23T02:16:41.412Z,83.70
2018-12-23T02:19:08.964Z,83.50
2018-12-23T02:21:36.489Z,83.60
2018-12-23T02:24:04.108Z,83.50
2018-12-23T02:26:31.667Z,83.40
2018-12-23T02:28:59.742Z,83.30
2018-12-23T02:31:27.301Z,83.60
2018-12-23T02:33:55.064Z,83.70
2018-12-23T02:36:24.923Z,83.30
2018-12-23T02:38:52.457Z,83.20
2018-12-23T02:41:19.998Z,83.00
2018-12-23T02:43:47.575Z,82.70
2018-12-23T02:46:15.091Z,83.00
2018-12-23T02:48:42.628Z,83.30
2018-12-23T02:51:10.189Z,82.90
2018-12-23T02:53:41.834Z,82.90
2018-12-23T02:56:09.478Z,82.70
2018-12-23T02:58:37.036Z,82.40
2018-12-23T03:01:04.688Z,82.60
2018-12-23T03:03:32.308Z,83.30
2018-12-23T03:06:05.647Z,83.20
2018-12-23T03:08:29.403Z,83.10
2018-12-23T03:10:57.038Z,83.30
2018-12-23T03:13:24.563Z,83.30
2018-12-23T03:15:52.148Z,82.70
2018-12-23T03:18:19.831Z,83.30
2018-12-23T03:20:47.427Z,83.00
2018-12-23T03:23:14.934Z,82.60
2018-12-23T03:25:42.516Z,82.80
2018-12-23T03:28:10.084Z,83.10
2018-12-23T03:30:37.858Z,83.20
2018-12-23T03:33:05.458Z,83.60
2018-12-23T03:35:32.991Z,83.10
2018-12-23T03:38:00.530Z,83.50
2018-12-23T03:40:28.265Z,83.70
2018-12-23T03:42:55.948Z,83.70
2018-12-23T03:45:23.509Z,84.20
2018-12-23T03:47:51.289Z,84.10
2018-12-23T03:50:18.826Z,83.40
2018-12-23T03:52:46.371Z,83.30
2018-12-23T03:55:13.944Z,83.90
2018-12-23T03:57:41.485Z,83.80
2018-12-23T04:00:09.018Z,83.80
2018-12-23T04:02:36.572Z,85.20
2018-12-23T04:05:04.640Z,84.00
2018-12-23T04:07:32.193Z,84.10
2018-12-23T04:09:59.719Z,84.70
2018-12-23T04:12:27.261Z,84.10
2018-12-23T04:14:55.136Z,84.20
2018-12-23T04:17:23.669Z,83.40
2018-12-23T04:19:51.242Z,83.80
2018-12-23T04:22:18.759Z,84.00
2018-12-23T04:24:46.289Z,83.80
2018-12-23T04:27:13.866Z,83.30
2018-12-23T04:29:41.369Z,83.50
2018-12-23T04:32:08.914Z,83.60
2018-12-23T04:34:36.470Z,83.50
2018-12-23T04:37:04.230Z,83.30
2018-12-23T04:39:31.760Z,83.10
2018-12-23T04:41:59.318Z,83.10
2018-12-23T04:44:27.449Z,83.00
2018-12-23T04:46:55.138Z,83.00
2018-12-23T04:49:22.677Z,83.10
2018-12-23T04:51:50.529Z,82.80
2018-12-23T04:54:18.051Z,82.80
2018-12-23T04:56:45.713Z,83.00
2018-12-23T04:59:13.223Z,83.00
2018-12-23T05:01:40.762Z,83.10
2018-12-23T05:04:08.345Z,83.60
2018-12-23T05:06:43.256Z,83.40
2018-12-23T05:09:05.668Z,83.60
2018-12-23T05:11:33.186Z,84.10
2018-12-23T05:14:00.757Z,83.70
2018-12-23T05:16:28.276Z,83.60
2018-12-23T05:18:55.878Z,83.40
2018-12-23T05:21:23.395Z,83.30
2018-12-23T05:23:50.932Z,83.30
2018-12-23T05:26:18.820Z,83.10
2018-12-23T05:28:46.438Z,83.10
2018-12-23T05:31:13.997Z,82.90
2018-12-23T05:33:41.583Z,83.10
2018-12-23T05:36:09.243Z,83.20
2018-12-23T05:38:37.374Z,83.40
2018-12-23T05:41:04.922Z,83.40
2018-12-23T05:43:32.432Z,83.40
2018-12-23T05:45:59.996Z,83.30
2018-12-23T05:48:27.509Z,83.80
2018-12-23T05:50:55.057Z,84.10
2018-12-23T05:53:22.568Z,83.20
2018-12-23T05:55:49.794Z,83.30
2018-12-23T05:58:17.330Z,83.50
2018-12-23T06:00:44.898Z,83.40
2018-12-23T06:03:12.430Z,83.00
2018-12-23T06:05:39.982Z,83.00
2018-12-23T06:08:07.520Z,82.90
2018-12-23T06:10:35.030Z,82.80
2018-12-23T06:13:02.648Z,83.00
2018-12-23T06:15:30.208Z,83.20
2018-12-23T06:17:57.783Z,83.00
2018-12-23T06:20:25.663Z,83.20
2018-12-23T06:22:54.123Z,82.90
2018-12-23T06:25:21.707Z,83.40
2018-12-23T06:27:49.342Z,82.50
2018-12-23T06:30:16.871Z,82.80
2018-12-23T06:32:44.466Z,82.70
2018-12-23T06:35:12.006Z,83.40
2018-12-23T06:37:39.537Z,83.20
2018-12-23T06:40:07.193Z,82.30
2018-12-23T06:42:34.889Z,82.70
2018-12-23T06:45:02.596Z,82.70
2018-12-23T06:47:30.112Z,82.40
2018-12-23T06:49:57.683Z,82.80
2018-12-23T06:52:25.205Z,82.20
2018-12-23T06:54:52.742Z,82.10
2018-12-23T06:57:20.363Z,82.50
2018-12-23T06:59:47.890Z,82.90
2018-12-23T07:02:16.483Z,83.00
2018-12-23T07:04:44.058Z,83.50
2018-12-23T07:07:18.569Z,83.50
2018-12-23T07:09:41.159Z,83.20
2018-12-23T07:12:08.731Z,82.60
2018-12-23T07:14:36.233Z,82.40
2018-12-23T07:17:04.023Z,82.40
2018-12-23T07:19:31.575Z,82.90
2018-12-23T07:21:59.209Z,82.90
2018-12-23T07:24:26.770Z,83.10
2018-12-23T07:26:54.369Z,84.10
2018-12-23T07:29:21.922Z,83.70
2018-12-23T07:31:49.465Z,83.50
2018-12-23T07:34:17.000Z,83.20
2018-12-23T07:36:49.491Z,83.70
2018-12-23T07:39:14.073Z,82.80
2018-12-23T07:41:41.690Z,83.20
2018-12-23T07:44:09.226Z,83.60
2018-12-23T07:46:36.800Z,83.40
2018-12-23T07:49:05.336Z,83.30
2018-12-23T07:51:32.849Z,83.00
2018-12-23T07:54:00.435Z,82.60
2018-12-23T07:56:27.977Z,82.30
2018-12-23T07:58:55.574Z,82.20
2018-12-23T08:01:23.117Z,82.30
2018-12-23T08:03:50.667Z,82.80
2018-12-23T08:06:18.305Z,82.60
2018-12-23T08:08:45.818Z,82.70
2018-12-23T08:11:13.374Z,82.80
2018-12-23T08:13:40.894Z,83.00
2018-12-23T08:16:10.485Z,83.70
2018-12-23T08:18:38.002Z,82.80
2018-12-23T08:21:05.545Z,82.80
2018-12-23T08:23:33.058Z,82.80
2018-12-23T08:26:00.568Z,82.80
2018-12-23T08:28:28.127Z,82.70
2018-12-23T08:30:55.652Z,82.90
2018-12-23T08:33:23.218Z,83.00
2018-12-23T08:35:50.817Z,83.10
2018-12-23T08:38:18.414Z,83.60
2018-12-23T08:40:45.971Z,83.60
2018-12-23T08:43:13.529Z,83.10
2018-12-23T08:45:41.085Z,82.50
2018-12-23T08:48:08.848Z,82.40
2018-12-23T08:50:37.296Z,82.80
2018-12-23T08:53:04.859Z,83.20
2018-12-23T08:55:32.391Z,82.50
2018-12-23T08:57:59.951Z,82.60
2018-12-23T09:00:27.489Z,82.30
2018-12-23T09:02:54.996Z,82.60
2018-12-23T09:05:22.546Z,82.30
2018-12-23T09:07:53.165Z,81.90
2018-12-23T09:10:19.665Z,81.80
2018-12-23T09:12:47.189Z,81.80
2018-12-23T09:15:14.740Z,82.20
2018-12-23T09:17:42.257Z,82.40
2018-12-23T09:20:09.818Z,82.00
2018-12-23T09:22:37.529Z,82.30
2018-12-23T09:25:05.060Z,81.90
2018-12-23T09:27:32.908Z,81.70
2018-12-23T09:30:00.443Z,81.80
2018-12-23T09:32:28.013Z,81.70
2018-12-23T09:34:55.569Z,81.70
2018-12-23T09:37:23.199Z,81.90
2018-12-23T09:39:50.765Z,81.40
2018-12-23T09:42:18.322Z,81.50
2018-12-23T09:44:45.903Z,81.90
2018-12-23T09:47:13.465Z,82.00
2018-12-23T09:49:41.127Z,81.50
2018-12-23T09:52:08.904Z,81.40
2018-12-23T09:54:36.577Z,81.20
2018-12-23T09:57:04.134Z,81.60
2018-12-23T09:59:31.654Z,81.30
2018-12-23T10:01:59.197Z,81.80
2018-12-23T10:04:26.707Z,81.70
2018-12-23T10:06:54.233Z,81.60
2018-12-23T10:09:21.777Z,81.50
2018-12-23T10:11:49.299Z,80.90
2018-12-23T10:14:16.836Z,80.60
2018-12-23T10:16:44.496Z,80.30
2018-12-23T10:19:12.004Z,80.50
2018-12-23T10:21:39.573Z,80.20
2018-12-23T10:24:07.130Z,80.80
2018-12-23T10:26:34.677Z,80.80
2018-12-23T10:29:03.518Z,80.80
2018-12-23T10:31:31.067Z,80.20
2018-12-23T10:33:58.586Z,80.00
2018-12-23T10:36:26.197Z,79.90
2018-12-23T10:38:53.869Z,79.80
2018-12-23T10:41:21.422Z,79.20
2018-12-23T10:43:48.967Z,79.00
2018-12-23T10:46:16.517Z,79.10
2018-12-23T10:48:44.305Z,78.70
2018-12-23T10:51:11.861Z,78.80
2018-12-23T10:53:39.389Z,78.80
2018-12-23T10:56:06.987Z,79.40
2018-12-23T10:58:35.214Z,80.10
2018-12-23T11:01:02.797Z,79.80
2018-12-23T11:03:31.137Z,79.00
2018-12-23T11:05:58.666Z,79.20
2018-12-23T11:08:27.100Z,79.20
2018-12-23T11:11:45.134Z,78.90
2018-12-23T11:14:13.843Z,78.10
2018-12-23T11:16:42.580Z,79.40
2018-12-23T11:19:11.274Z,78.60
2018-12-23T11:21:40.117Z,78.60
2018-12-23T11:24:08.794Z,78.10
2018-12-23T11:26:37.463Z,78.10
2018-12-23T11:29:06.219Z,78.00
2018-12-23T11:31:34.880Z,78.10
2018-12-23T11:34:03.595Z,78.20
2018-12-23T11:36:32.314Z,77.80
2018-12-23T11:39:01.014Z,77.40
2018-12-23T11:41:29.709Z,78.10
2018-12-23T11:43:58.417Z,78.50
2018-12-23T11:46:27.182Z,77.70
2018-12-23T11:48:55.847Z,76.80
2018-12-23T11:51:24.557Z,76.90
2018-12-23T11:53:53.325Z,77.00
2018-12-23T11:56:21.986Z,76.50
2018-12-23T11:58:50.707Z,76.70
2018-12-23T12:01:19.990Z,76.80
2018-12-23T12:03:48.706Z,76.90
2018-12-23T12:06:17.504Z,77.30
2018-12-23T12:08:46.209Z,77.20
2018-12-23T12:11:15.018Z,77.50
2018-12-23T12:13:43.784Z,77.50
2018-12-23T12:16:12.486Z,77.40
2018-12-23T12:18:41.175Z,77.70
2018-12-23T12:21:09.895Z,77.40
2018-12-23T12:23:38.559Z,76.90
2018-12-23T12:26:07.539Z,76.90
2018-12-23T12:28:36.192Z,77.10
2018-12-23T12:31:04.942Z,77.10
2018-12-23T12:33:33.621Z,77.00
2018-12-23T12:36:02.324Z,77.00
2018-12-23T12:38:31.015Z,77.30
2018-12-23T12:40:59.727Z,77.30
2018-12-23T12:43:28.638Z,77.40
2018-12-23T12:46:00.672Z,77.30
2018-12-23T12:48:27.732Z,77.90
2018-12-23T12:50:56.417Z,78.10
2018-12-23T12:53:25.072Z,78.40
2018-12-23T12:55:53.895Z,78.20
2018-12-23T12:58:22.610Z,78.10
2018-12-23T13:00:51.304Z,78.40
2018-12-23T13:03:19.960Z,77.60
2018-12-23T13:05:48.607Z,78.10
2018-12-23T13:08:17.399Z,78.70
2018-12-23T13:10:46.084Z,78.50
2018-12-23T13:13:14.746Z,78.90
2018-12-23T13:15:43.428Z,78.80
2018-12-23T13:18:12.106Z,78.60
2018-12-23T13:20:41.018Z,78.30
2018-12-23T13:23:09.689Z,78.60
2018-12-23T13:25:38.311Z,78.90
2018-12-23T13:28:07.180Z,79.30
2018-12-23T13:30:35.853Z,79.90
2018-12-23T13:33:04.676Z,80.00
2018-12-23T13:35:33.437Z,80.60
2018-12-23T13:38:02.114Z,80.60
2018-12-23T13:40:33.856Z,80.80
2018-12-23T13:43:11.197Z,80.90
2018-12-23T13:45:59.271Z,80.50
2018-12-23T13:48:33.706Z,80.60
2018-12-23T13:51:29.621Z,80.60
2018-12-23T13:54:16.576Z,81.70
2018-12-23T13:57:10.911Z,81.90
2018-12-23T13:59:57.883Z,81.80
2018-12-23T14:02:45.981Z,81.80
2018-12-23T14:05:20.930Z,82.20
2018-12-23T14:08:04.743Z,82.10
2018-12-23T14:10:36.451Z,82.10
2018-12-23T14:13:05.237Z,82.10
2018-12-23T14:15:34.003Z,82.50
2018-12-23T14:18:02.691Z,82.40
2018-12-23T14:20:31.586Z,82.50
2018-12-23T14:23:00.296Z,81.70
2018-12-23T14:25:28.962Z,82.10
2018-12-23T14:27:57.647Z,82.10
2018-12-23T14:30:26.422Z,82.40
2018-12-23T14:32:55.218Z,82.60
2018-12-23T14:35:24.279Z,82.60
2018-12-23T14:37:52.991Z,81.70
2018-12-23T14:40:21.644Z,81.50
2018-12-23T14:42:50.329Z,81.60
2018-12-23T14:45:19.050Z,81.20
2018-12-23T14:47:47.770Z,81.40
2018-12-23T14:50:16.590Z,81.60
2018-12-23T14:52:45.250Z,82.00
2018-12-23T14:55:14.311Z,82.00
2018-12-23T14:57:42.955Z,82.00
2018-12-23T15:00:31.056Z,81.80
2018-12-23T15:02:59.831Z,81.90
2018-12-23T15:05:28.485Z,82.30
2018-12-23T15:07:57.223Z,83.30
2018-12-23T15:10:25.951Z,83.30
2018-12-23T15:12:54.610Z,82.40
2018-12-23T15:15:23.306Z,82.10
2018-12-23T15:17:52.050Z,82.80
2018-12-23T15:20:20.763Z,83.30
2018-12-23T15:22:50.694Z,83.70
2018-12-23T15:25:19.348Z,84.30
2018-12-23T15:27:48.063Z,84.10
2018-12-23T15:30:16.883Z,85.10
2018-12-23T15:32:45.669Z,84.80
2018-12-23T15:35:14.563Z,84.90
2018-12-23T15:37:43.279Z,84.40
2018-12-23T15:40:13.496Z,84.20
2018-12-23T15:42:42.309Z,83.80
2018-12-23T15:45:11.129Z,84.30
2018-12-23T15:47:40.148Z,84.80
2018-12-23T15:50:08.983Z,85.00
2018-12-23T15:52:37.696Z,84.90
2018-12-23T15:55:06.630Z,85.60
2018-12-23T15:57:35.411Z,85.70
2018-12-23T16:00:05.456Z,85.70
2018-12-23T16:02:39.992Z,86.30
2018-12-23T16:05:08.760Z,86.70
2018-12-23T16:07:37.455Z,87.60
2018-12-23T16:10:08.203Z,87.70
2018-12-23T16:12:36.871Z,87.40
2018-12-23T16:15:06.006Z,87.50
2018-12-23T16:17:34.834Z,87.20
2018-12-23T16:20:04.345Z,87.00
2018-12-23T16:22:33.184Z,86.80
2018-12-23T16:25:01.874Z,87.10
2018-12-23T16:27:30.678Z,87.00
2018-12-23T16:29:59.438Z,87.60
2018-12-23T16:32:28.103Z,87.00
2018-12-23T16:34:56.916Z,86.60
2018-12-23T16:37:25.642Z,87.10
2018-12-23T16:39:59.521Z,86.90
2018-12-23T16:42:24.731Z,87.20
2018-12-23T16:44:53.422Z,87.10
2018-12-23T16:47:22.238Z,86.90
2018-12-23T16:49:50.934Z,86.80
2018-12-23T16:52:19.842Z,87.20
2018-12-23T16:54:48.505Z,87.10
2018-12-23T16:57:17.363Z,87.20
2018-12-23T16:59:46.082Z,87.50
2018-12-23T17:02:14.790Z,87.40
2018-12-23T17:04:43.587Z,87.30
2018-12-23T17:07:12.314Z,87.60
2018-12-23T17:09:41.154Z,87.90
2018-12-23T17:12:09.823Z,87.80
2018-12-23T17:14:38.536Z,87.50
2018-12-23T17:17:07.215Z,87.70
2018-12-23T17:19:35.914Z,87.70
2018-12-23T17:22:04.693Z,87.50
2018-12-23T17:24:33.385Z,88.00
2018-12-23T17:27:02.522Z,88.00
2018-12-23T17:29:31.170Z,88.20
2018-12-23T17:32:00.034Z,88.20
2018-12-23T17:34:28.766Z,88.10
2018-12-23T17:36:57.578Z,88.10
2018-12-23T17:39:26.368Z,88.00
2018-12-23T17:41:55.042Z,87.90
2018-12-23T17:44:23.738Z,87.90
2018-12-23T17:46:53.122Z,88.00
2018-12-23T17:49:21.947Z,88.20
2018-12-23T17:51:50.978Z,88.20
2018-12-23T17:54:19.783Z,88.40
2018-12-23T17:56:48.507Z,88.80
2018-12-23T17:59:17.138Z,88.90
2018-12-23T18:01:45.994Z,89.20
2018-12-23T18:04:14.654Z,89.30
2018-12-23T18:06:43.573Z,89.50
2018-12-23T18:09:12.233Z,89.80
2018-12-23T18:11:40.931Z,90.00
2018-12-23T18:14:09.722Z,90.20
2018-12-23T18:16:38.440Z,90.20
2018-12-23T18:19:07.128Z,90.20
2018-12-23T18:21:35.814Z,90.20
2018-12-23T18:24:04.571Z,90.30
2018-12-23T18:26:33.291Z,90.30
2018-12-23T18:29:02.261Z,90.30
2018-12-23T18:31:30.970Z,90.40
2018-12-23T18:33:59.659Z,90.30
2018-12-23T18:36:28.373Z,90.30
2018-12-23T18:38:57.157Z,90.30
2018-12-23T18:41:25.949Z,90.70
2018-12-23T18:43:54.983Z,90.30
2018-12-23T18:46:23.734Z,90.20
2018-12-23T18:48:52.438Z,90.30
2018-12-23T18:51:21.106Z,90.30
2018-12-23T18:53:49.842Z,90.30
2018-12-23T18:56:18.798Z,90.20
2018-12-23T18:58:47.509Z,90.10
2018-12-23T19:01:16.599Z,90.10
2018-12-23T19:03:45.254Z,90.20
2018-12-23T19:06:13.940Z,90.30
2018-12-23T19:08:46.099Z,90.40
2018-12-23T19:11:32.763Z,90.40
2018-12-23T19:14:24.143Z,90.30
2018-12-23T19:17:10.939Z,90.40
2018-12-23T19:20:01.189Z,90.50
2018-12-23T19:22:38.828Z,90.70
2018-12-23T19:25:19.741Z,90.80
2018-12-23T19:28:14.848Z,90.80
2018-12-23T19:30:55.424Z,90.80
2018-12-23T19:33:30.154Z,91.00
2018-12-23T19:36:13.931Z,91.00
2018-12-23T19:38:45.930Z,90.90
2018-12-23T19:41:38.233Z,90.90
2018-12-23T19:44:15.278Z,90.90
2018-12-23T19:47:13.190Z,91.00
2018-12-23T19:49:51.583Z,91.00
2018-12-23T19:52:26.443Z,91.10
2018-12-23T19:55:16.377Z,91.20
2018-12-23T19:57:53.870Z,91.20
2018-12-23T20:00:37.641Z,91.20
2018-12-23T20:03:39.445Z,91.10
2018-12-23T20:06:32.150Z,91.40
2018-12-23T20:09:18.746Z,91.10
2018-12-23T20:12:10.058Z,91.10
2018-12-23T20:14:53.647Z,91.20
2018-12-23T20:17:45.034Z,91.40
2018-12-23T20:20:36.417Z,91.30
2018-12-23T20:23:38.313Z,91.40
2018-12-23T20:26:38.834Z,91.50
2018-12-23T20:29:13.408Z,91.40
2018-12-23T20:31:45.185Z,91.50
2018-12-23T20:34:22.863Z,91.40
2018-12-23T20:37:06.806Z,91.30
2018-12-23T20:39:50.704Z,91.20
2018-12-23T20:42:37.170Z,91.30
2018-12-23T20:45:40.893Z,91.30
2018-12-23T20:48:27.842Z,91.40
2018-12-23T20:51:22.302Z,91.40
2018-12-23T20:54:02.943Z,91.30
2018-12-23T20:56:37.395Z,91.40
2018-12-23T20:59:24.290Z,91.50
2018-12-23T21:02:21.691Z,91.40
2018-12-23T21:04:56.106Z,91.30
2018-12-23T21:07:42.825Z,91.40
2018-12-23T21:10:30.833Z,91.50
2018-12-23T21:13:11.310Z,91.40
2018-12-23T21:15:58.244Z,91.20
2018-12-23T21:18:52.786Z,91.20
2018-12-23T21:21:33.163Z,91.10
2018-12-23T21:24:27.457Z,91.10
2018-12-23T21:27:14.141Z,91.20
2018-12-23T21:30:13.055Z,91.20
2018-12-23T21:32:56.737Z,91.20
2018-12-23T21:35:30.940Z,91.20
2018-12-23T21:38:20.894Z,91.20
2018-12-23T21:41:10.972Z,91.00
2018-12-23T21:43:45.713Z,91.00
2018-12-23T21:46:20.370Z,90.90
2018-12-23T21:48:58.046Z,90.80
2018-12-23T21:51:38.923Z,90.90
2018-12-23T21:54:16.466Z,90.90
2018-12-23T21:57:21.623Z,91.00
2018-12-23T21:59:59.051Z,90.90
2018-12-23T22:02:57.843Z,90.90
2018-12-23T22:05:44.535Z,90.90
2018-12-23T22:08:34.320Z,90.80
2018-12-23T22:11:24.135Z,90.80
2018-12-23T22:13:52.856Z,90.80
2018-12-23T22:16:21.575Z,90.80
2018-12-23T22:18:50.349Z,90.60
2018-12-23T22:21:19.006Z,90.70
2018-12-23T22:23:48.103Z,90.60
2018-12-23T22:26:16.801Z,90.60
2018-12-23T22:28:45.663Z,90.50
2018-12-23T22:31:14.443Z,90.50
2018-12-23T22:33:43.239Z,90.60
2018-12-23T22:36:15.202Z,90.60
2018-12-23T22:38:43.890Z,90.50
2018-12-23T22:41:12.671Z,90.50
2018-12-23T22:43:41.322Z,90.50
2018-12-23T22:46:10.018Z,90.50
2018-12-23T22:48:38.886Z,90.70
2018-12-23T22:51:07.594Z,90.80
2018-12-23T22:53:36.238Z,90.90
2018-12-23T22:56:04.909Z,90.90
2018-12-23T22:58:33.586Z,91.00
2018-12-23T23:01:02.338Z,91.00
2018-12-23T23:03:31.185Z,91.10
2018-12-23T23:05:59.925Z,91.10
2018-12-23T23:08:28.620Z,91.10
2018-12-23T23:10:57.346Z,91.10
2018-12-23T23:13:26.007Z,91.20
2018-12-23T23:15:54.741Z,91.20
2018-12-23T23:18:23.918Z,91.20
2018-12-23T23:20:52.681Z,91.20
2018-12-23T23:23:21.383Z,91.10
2018-12-23T23:25:50.210Z,91.10
2018-12-23T23:28:18.918Z,91.00
2018-12-23T23:30:47.602Z,91.00
2018-12-23T23:33:16.295Z,91.20
2018-12-23T23:35:45.340Z,91.20
2018-12-23T23:38:14.002Z,91.20
2018-12-23T23:40:42.688Z,91.10
2018-12-23T23:43:11.346Z,91.00
2018-12-23T23:45:40.028Z,90.90
2018-12-23T23:48:08.722Z,91.00
2018-12-23T23:50:37.686Z,91.10
2018-12-23T23:53:06.595Z,91.10
2018-12-23T23:55:35.291Z,91.10
2018-12-23T23:58:03.951Z,91.10
